createdAt,value
2023-05-22T00:00:09.713Z,13.13
2023-05-22T00:05:15.197Z,11.60
2023-05-22T00:10:16.948Z,12.23
2023-05-22T00:15:18.653Z,11.50
2023-05-22T00:20:20.315Z,12.10
2023-05-22T00:25:21.951Z,11.15
2023-05-22T00:30:23.581Z,16.50
2023-05-22T00:35:25.289Z,15.35
2023-05-22T00:40:26.994Z,12.38
2023-05-22T00:45:29.127Z,12.68
2023-05-22T00:50:30.874Z,12.98
2023-05-22T00:55:32.549Z,11.27
2023-05-22T01:00:40.123Z,13.40
2023-05-22T01:05:43.518Z,12.88
2023-05-22T01:10:45.533Z,13.93
2023-05-22T01:16:10.969Z,13.98
2023-05-22T01:21:25.541Z,12.43
2023-05-22T01:26:49.542Z,15.30
2023-05-22T01:31:55.451Z,11.48
2023-05-22T01:37:00.349Z,14.50
2023-05-22T01:42:02.469Z,14.02
2023-05-22T01:47:05.883Z,14.88
2023-05-22T01:52:15.490Z,15.63
2023-05-22T01:57:27.760Z,12.85
2023-05-22T02:02:30.871Z,13.65
2023-05-22T02:07:35.337Z,16.65
2023-05-22T02:12:39.632Z,16.02
2023-05-22T02:17:41.525Z,16.02
2023-05-22T02:22:48.244Z,16.35
2023-05-22T02:27:49.953Z,13.18
2023-05-22T02:32:51.947Z,14.25
2023-05-22T02:37:53.751Z,14.00
2023-05-22T02:42:55.436Z,12.85
2023-05-22T02:47:57.400Z,15.77
2023-05-22T02:52:59.173Z,16.20
2023-05-22T02:58:00.855Z,12.65
2023-05-22T03:03:02.625Z,13.18
2023-05-22T03:08:04.479Z,13.75
2023-05-22T03:13:06.137Z,15.38
2023-05-22T03:18:07.905Z,15.10
2023-05-22T03:23:12.528Z,16.05
2023-05-22T03:28:14.889Z,13.27
2023-05-22T03:33:16.747Z,15.15
2023-05-22T03:38:18.759Z,17.35
2023-05-22T03:43:20.409Z,15.27
2023-05-22T03:48:22.130Z,13.57
2023-05-22T03:53:23.833Z,13.73
2023-05-22T03:58:26.001Z,15.02
2023-05-22T04:03:28.394Z,12.68
2023-05-22T04:08:30.901Z,14.48
2023-05-22T04:13:34.939Z,12.95
2023-05-22T04:18:36.833Z,13.07
2023-05-22T04:23:38.741Z,13.23
2023-05-22T04:28:40.863Z,12.77
2023-05-22T04:33:42.876Z,11.02
2023-05-22T04:38:44.926Z,19.67
2023-05-22T04:43:48.434Z,18.00
2023-05-22T04:48:51.084Z,10.18
2023-05-22T04:53:55.694Z,14.10
2023-05-22T04:58:57.552Z,11.60
2023-05-22T05:03:59.293Z,10.88
2023-05-22T05:09:02.187Z,11.40
2023-05-22T05:14:04.189Z,14.18
2023-05-22T05:19:05.896Z,10.43
2023-05-22T05:24:07.884Z,12.73
2023-05-22T05:29:10.052Z,8.80
2023-05-22T05:34:22.542Z,11.55
2023-05-22T05:39:37.065Z,10.25
2023-05-22T05:44:41.606Z,13.30
2023-05-22T05:49:43.406Z,13.30
2023-05-22T05:54:47.523Z,13.38
2023-05-22T05:59:53.637Z,12.70
2023-05-22T06:05:15.543Z,11.68
2023-05-22T06:10:17.620Z,9.60
2023-05-22T06:15:31.647Z,19.25
2023-05-22T06:20:33.379Z,11.40
2023-05-22T06:25:36.024Z,11.45
2023-05-22T06:30:40.380Z,8.43
2023-05-22T06:35:47.068Z,12.55
2023-05-22T06:40:50.047Z,16.77
2023-05-22T06:45:55.915Z,9.40
2023-05-22T06:50:57.573Z,9.40
2023-05-22T06:56:00.482Z,6.72
2023-05-22T07:01:22.216Z,6.43
2023-05-22T07:06:42.558Z,4.90
2023-05-22T07:11:46.152Z,7.75
2023-05-22T07:16:50.516Z,6.45
2023-05-22T07:22:00.178Z,5.03
2023-05-22T07:27:04.476Z,6.47
2023-05-22T07:32:08.444Z,4.22
2023-05-22T07:37:12.999Z,5.78
2023-05-22T07:42:16.437Z,7.68
2023-05-22T07:47:24.515Z,3.53
2023-05-22T07:52:26.694Z,5.47
2023-05-22T07:57:29.997Z,4.65
2023-05-22T08:02:36.830Z,5.15
2023-05-22T08:07:38.652Z,4.50
2023-05-22T08:12:40.441Z,4.10
2023-05-22T08:17:42.114Z,4.88
2023-05-22T08:22:43.882Z,4.75
2023-05-22T08:27:45.577Z,7.05
2023-05-22T08:32:47.359Z,6.18
2023-05-22T08:37:49.015Z,6.47
2023-05-22T08:42:54.372Z,5.85
2023-05-22T08:47:58.165Z,3.78
2023-05-22T08:53:04.456Z,6.10
2023-05-22T08:58:06.808Z,3.97
2023-05-22T09:03:10.203Z,4.32
2023-05-22T09:08:19.666Z,6.70
2023-05-22T09:13:26.434Z,2.55
2023-05-22T09:18:29.239Z,3.20
2023-05-22T09:23:30.935Z,4.55
2023-05-22T09:28:37.283Z,4.03
2023-05-22T09:33:39.048Z,3.65
2023-05-22T09:38:41.431Z,2.72
2023-05-22T09:43:50.847Z,3.33
2023-05-22T09:48:53.497Z,3.08
2023-05-22T09:54:03.533Z,3.45
2023-05-22T09:59:09.918Z,2.80
2023-05-22T10:04:14.509Z,3.10
2023-05-22T10:09:19.679Z,3.65
2023-05-22T10:14:22.457Z,4.47
2023-05-22T10:19:27.392Z,8.15
2023-05-22T10:24:31.513Z,6.57
2023-05-22T10:29:43.215Z,8.32
2023-05-22T10:34:57.544Z,6.28
2023-05-22T10:40:05.328Z,5.30
2023-05-22T10:45:07.920Z,7.47
2023-05-22T10:50:11.565Z,6.05
2023-05-22T10:55:13.516Z,4.88
2023-05-22T11:00:16.227Z,5.53
2023-05-22T11:05:21.697Z,4.20
2023-05-22T11:10:27.222Z,3.88
2023-05-22T11:15:32.501Z,4.22
2023-05-22T11:20:37.696Z,4.80
2023-05-22T11:25:41.365Z,4.45
2023-05-22T11:30:43.481Z,3.25
2023-05-22T11:35:48.087Z,4.68
2023-05-22T11:40:52.066Z,5.25
2023-05-22T11:45:53.745Z,5.70
2023-05-22T11:50:55.671Z,17.67
2023-05-22T11:56:05.064Z,7.35
2023-05-22T12:01:06.820Z,11.00
2023-05-22T12:06:09.417Z,6.60
2023-05-22T12:11:14.318Z,9.52
2023-05-22T12:16:21.986Z,3.50
2023-05-22T12:21:23.810Z,5.28
2023-05-22T12:26:25.539Z,2.88
2023-05-22T12:31:27.415Z,4.82
2023-05-22T12:36:43.730Z,3.60
2023-05-22T12:41:46.326Z,4.57
2023-05-22T12:46:48.132Z,7.25
2023-05-22T12:51:49.790Z,13.43
2023-05-22T12:56:51.477Z,10.10
2023-05-22T13:01:53.979Z,5.72
2023-05-22T13:06:56.109Z,3.88
2023-05-22T13:11:57.806Z,8.60
2023-05-22T13:16:59.473Z,6.22
2023-05-22T13:22:01.155Z,5.90
2023-05-22T13:27:02.848Z,3.35
2023-05-22T13:32:04.857Z,6.90
2023-05-22T13:37:06.911Z,4.97
2023-05-22T13:42:08.703Z,4.35
2023-05-22T13:47:10.514Z,15.93
2023-05-22T13:52:12.213Z,3.67
2023-05-22T13:57:13.928Z,4.38
2023-05-22T14:02:15.672Z,4.85
2023-05-22T14:07:17.471Z,2.70
2023-05-22T14:12:19.239Z,4.68
2023-05-22T14:17:21.041Z,3.17
2023-05-22T14:22:22.687Z,7.40
2023-05-22T14:27:24.406Z,7.57
2023-05-22T14:32:26.095Z,5.05
2023-05-22T14:37:27.766Z,6.30
2023-05-22T14:42:29.424Z,4.15
2023-05-22T14:47:31.144Z,6.32
2023-05-22T14:52:32.792Z,4.28
2023-05-22T14:57:34.883Z,5.60
2023-05-22T15:02:37.258Z,4.90
2023-05-22T15:07:44.894Z,3.72
2023-05-22T15:12:47.819Z,7.00
2023-05-22T15:17:49.522Z,3.08
2023-05-22T15:22:51.209Z,5.70
2023-05-22T15:27:53.182Z,5.03
2023-05-22T15:32:54.857Z,4.38
2023-05-22T15:37:59.440Z,5.93
2023-05-22T15:43:03.934Z,4.70
2023-05-22T15:48:07.290Z,3.10
2023-05-22T15:53:09.227Z,5.90
2023-05-22T15:58:13.161Z,3.08
2023-05-22T16:03:15.455Z,3.03
2023-05-22T16:08:17.415Z,3.42
2023-05-22T16:13:19.068Z,2.72
2023-05-22T16:18:21.718Z,4.13
2023-05-22T16:23:23.365Z,7.20
2023-05-22T16:28:25.070Z,4.53
2023-05-22T16:33:26.828Z,5.22
2023-05-22T16:38:28.472Z,7.90
2023-05-22T16:43:30.105Z,3.92
2023-05-22T16:48:31.756Z,4.55
2023-05-22T16:53:33.529Z,5.38
2023-05-22T16:58:35.904Z,3.85
2023-05-22T17:03:37.881Z,6.55
2023-05-22T17:08:39.806Z,6.40
2023-05-22T17:13:41.548Z,3.92
2023-05-22T17:18:43.325Z,7.82
2023-05-22T17:23:45.242Z,5.95
2023-05-22T17:28:47.161Z,7.38
2023-05-22T17:33:48.864Z,4.57
2023-05-22T17:38:50.524Z,4.20
2023-05-22T17:43:52.210Z,6.72
2023-05-22T17:48:55.276Z,4.68
2023-05-22T17:53:59.022Z,7.90
2023-05-22T17:59:01.408Z,6.03
2023-05-22T18:04:04.857Z,5.65
2023-05-22T18:09:07.914Z,3.20
2023-05-22T18:14:09.593Z,7.05
2023-05-22T18:19:11.250Z,5.30
2023-05-22T18:24:13.908Z,8.48
2023-05-22T18:29:15.677Z,4.05
2023-05-22T18:34:17.506Z,6.18
2023-05-22T18:39:19.181Z,19.58
2023-05-22T18:44:23.222Z,5.25
2023-05-22T18:49:24.913Z,5.10
2023-05-22T18:54:27.161Z,4.88
2023-05-22T18:59:28.828Z,3.10
2023-05-22T19:04:30.545Z,12.98
2023-05-22T19:09:32.312Z,4.00
2023-05-22T19:14:33.979Z,5.68
2023-05-22T19:19:35.797Z,6.30
2023-05-22T19:24:37.467Z,7.63
2023-05-22T19:29:39.119Z,7.93
2023-05-22T19:34:41.041Z,10.48
2023-05-22T19:39:42.730Z,6.15
2023-05-22T19:44:44.369Z,4.40
2023-05-22T19:49:46.086Z,4.10
2023-05-22T19:54:47.739Z,7.47
2023-05-22T19:59:50.673Z,3.80
2023-05-22T20:04:52.404Z,5.50
2023-05-22T20:09:54.087Z,3.10
2023-05-22T20:14:55.862Z,5.22
2023-05-22T20:19:58.756Z,4.82
2023-05-22T20:25:01.490Z,5.70
2023-05-22T20:30:03.646Z,8.80
2023-05-22T20:35:06.956Z,3.92
2023-05-22T20:40:12.055Z,7.97
2023-05-22T20:45:14.847Z,6.00
2023-05-22T20:50:18.056Z,5.05
2023-05-22T20:55:19.768Z,3.63
2023-05-22T21:00:22.140Z,5.18
2023-05-22T21:05:23.837Z,5.07
2023-05-22T21:10:26.174Z,5.10
2023-05-22T21:15:27.845Z,7.95
2023-05-22T21:20:29.488Z,4.97
2023-05-22T21:25:31.211Z,4.93
2023-05-22T21:30:32.842Z,10.07
2023-05-22T21:35:34.513Z,4.05
2023-05-22T21:40:36.194Z,4.55
2023-05-22T21:45:38.941Z,4.22
2023-05-22T21:50:40.837Z,4.35
2023-05-22T21:55:42.711Z,6.80
2023-05-22T22:00:44.388Z,5.35
2023-05-22T22:05:46.037Z,6.47
2023-05-22T22:10:47.714Z,7.80
2023-05-22T22:15:49.676Z,8.00
2023-05-22T22:20:54.171Z,6.57
2023-05-22T22:25:56.196Z,5.90
2023-05-22T22:30:58.497Z,4.88
2023-05-22T22:36:00.295Z,6.00
2023-05-22T22:41:01.987Z,4.05
2023-05-22T22:46:03.705Z,5.15
2023-05-22T22:51:05.452Z,4.40
2023-05-22T22:56:07.122Z,14.00
2023-05-22T23:01:08.791Z,6.43
2023-05-22T23:06:10.623Z,5.47
2023-05-22T23:11:12.276Z,5.47
2023-05-22T23:16:14.004Z,6.20
2023-05-22T23:21:15.663Z,8.95
2023-05-22T23:26:17.371Z,5.85
2023-05-22T23:31:19.383Z,6.03
2023-05-22T23:36:21.126Z,7.32
2023-05-22T23:41:24.493Z,5.07
2023-05-22T23:46:26.242Z,7.72
2023-05-22T23:51:27.901Z,6.55
2023-05-22T23:56:29.631Z,4.65
